Time;durP1;ratioP1;P1;durP2;ratioP2;P2;SDS_P1;SDS_P2;PMS_P1;PMS_P2;Temp;Humidity;BMP_temperature;BMP_pressure;BME280_temperature;BME280_humidity;BME280_pressure;Samples;Min_cycle;Max_cycle;Signal;HPM_P1;HPM_P2
2021/04/20 00:01:19;;;;;;;0.40;0.40;;;10.00;99.90;;;;;;4430791;32;20496;-62
2021/04/20 00:03:45;;;;;;;4.90;1.23;;;9.90;99.90;;;;;;4431291;32;20119;-61
2021/04/20 00:06:11;;;;;;;0.30;0.30;;;9.80;99.90;;;;;;4431654;32;20061;-62
2021/04/20 00:08:37;;;;;;;1.00;0.82;;;9.70;99.90;;;;;;4431413;32;20467;-62
2021/04/20 00:11:03;;;;;;;0.50;0.50;;;9.60;99.90;;;;;;4411167;32;20066;-61
2021/04/20 00:13:29;;;;;;;0.60;0.60;;;9.50;99.90;;;;;;4402727;32;20424;-61
2021/04/20 00:15:54;;;;;;;0.77;0.77;;;9.60;99.90;;;;;;4389105;32;20073;-61
2021/04/20 00:18:20;;;;;;;3.85;0.90;;;9.60;99.90;;;;;;4416570;32;20081;-62
2021/04/20 00:20:45;;;;;;;0.98;0.90;;;9.50;99.90;;;;;;4416069;32;20066;-62
2021/04/20 00:23:11;;;;;;;0.90;0.88;;;9.50;99.90;;;;;;4414328;32;20077;-61
2021/04/20 00:25:36;;;;;;;0.65;0.50;;;9.50;99.90;;;;;;4415742;32;20065;-61
2021/04/20 00:28:02;;;;;;;0.75;0.75;;;9.40;99.90;;;;;;4415363;32;20524;-61
2021/04/20 00:30:28;;;;;;;0.45;0.45;;;9.40;99.90;;;;;;4402871;32;20559;-60
2021/04/20 00:32:54;;;;;;;2.20;1.42;;;9.40;99.90;;;;;;4401732;32;20081;-61
2021/04/20 00:35:19;;;;;;;3.17;1.17;;;9.30;99.90;;;;;;4414744;32;20065;-62
2021/04/20 00:37:45;;;;;;;0.93;0.57;;;9.20;99.90;;;;;;4415491;32;20120;-61
2021/04/20 00:40:14;;;;;;;0.60;0.60;;;9.30;99.90;;;;;;4420916;32;20069;-61
2021/04/20 00:42:49;;;;;;;1.25;1.15;;;9.30;99.90;;;;;;4418048;32;20522;-62
2021/04/20 00:45:17;;;;;;;0.50;0.50;;;9.40;99.90;;;;;;4431177;32;20065;-62
2021/04/20 00:47:42;;;;;;;0.40;0.40;;;9.40;99.90;;;;;;4429934;32;20164;-61
2021/04/20 00:50:10;;;;;;;1.65;0.93;;;9.20;99.90;;;;;;4430259;32;20074;-62
2021/04/20 00:52:35;;;;;;;13.65;0.88;;;9.00;99.90;;;;;;4416598;32;20400;-61
2021/04/20 00:55:01;;;;;;;27.85;1.23;;;9.00;99.90;;;;;;4429775;32;20078;-61
2021/04/20 00:57:26;;;;;;;1.12;0.70;;;9.00;99.90;;;;;;4430471;32;20463;-61
2021/04/20 00:59:52;;;;;;;0.75;0.73;;;9.00;99.90;;;;;;4428540;32;20065;-60
2021/04/20 01:02:17;;;;;;;0.50;0.50;;;8.80;99.90;;;;;;4430095;32;20065;-62
2021/04/20 01:04:43;;;;;;;0.52;0.52;;;8.70;99.90;;;;;;4429573;32;20061;-61
2021/04/20 01:07:09;;;;;;;19.65;1.37;;;8.70;99.90;;;;;;4430963;32;20104;-60
2021/04/20 01:09:35;;;;;;;1.65;0.73;;;8.80;99.90;;;;;;4416030;32;20078;-61
2021/04/20 01:12:01;;;;;;;2.90;1.45;;;8.80;99.90;;;;;;4429959;32;20069;-61
2021/04/20 01:14:27;;;;;;;0.62;0.50;;;8.70;99.90;;;;;;4430402;32;20077;-61
2021/04/20 01:16:52;;;;;;;3.50;0.93;;;8.70;99.90;;;;;;4430842;32;20061;-62
2021/04/20 01:19:21;;;;;;;1.00;1.00;;;8.70;99.90;;;;;;4430087;32;20073;-61
2021/04/20 01:21:47;;;;;;;0.65;0.65;;;8.80;99.90;;;;;;4416673;32;20527;-60
2021/04/20 01:24:16;;;;;;;1.08;0.50;;;8.80;99.90;;;;;;4417006;32;20128;-61
2021/04/20 01:26:44;;;;;;;0.40;0.40;;;8.90;99.90;;;;;;4430564;32;20073;-61
2021/04/20 01:29:10;;;;;;;0.60;0.60;;;8.80;99.90;;;;;;4416593;32;20086;-61
2021/04/20 01:31:39;;;;;;;0.88;0.68;;;8.70;99.90;;;;;;4430958;32;20069;-61
2021/04/20 01:34:05;;;;;;;0.50;0.50;;;8.70;99.90;;;;;;4403148;32;20503;-61
2021/04/20 01:36:30;;;;;;;0.80;0.80;;;8.70;99.90;;;;;;4416340;32;20123;-61
2021/04/20 01:38:57;;;;;;;0.90;0.90;;;8.70;99.90;;;;;;4416651;32;20393;-61
2021/04/20 01:41:24;;;;;;;4.53;1.45;;;8.70;99.90;;;;;;4390366;32;20077;-61
2021/04/20 01:43:52;;;;;;;1.35;0.85;;;8.80;99.90;;;;;;4414629;32;20082;-62
2021/04/20 01:46:18;;;;;;;1.12;0.68;;;8.60;99.90;;;;;;4414107;32;20077;-61
2021/04/20 01:48:45;;;;;;;0.25;0.25;;;8.30;99.90;;;;;;4400037;32;20078;-62
2021/04/20 01:51:11;;;;;;;5.93;1.45;;;8.10;99.90;;;;;;4412841;32;20087;-61
2021/04/20 01:53:37;;;;;;;1.17;0.50;;;8.20;99.90;;;;;;4415437;32;20058;-61
2021/04/20 01:56:05;;;;;;;0.80;0.80;;;8.30;99.90;;;;;;4415079;32;20074;-62
2021/04/20 01:58:33;;;;;;;0.32;0.32;;;8.40;99.90;;;;;;4400608;32;20121;-62
2021/04/20 02:01:03;;;;;;;0.68;0.68;;;8.50;99.90;;;;;;4388114;32;20522;-61
2021/04/20 02:03:30;;;;;;;1.27;0.98;;;8.50;99.90;;;;;;4414834;32;20080;-62
2021/04/20 02:05:57;;;;;;;0.50;0.50;;;8.50;99.90;;;;;;4387951;32;20132;-61
2021/04/20 02:08:23;;;;;;;13.23;0.60;;;8.20;99.90;;;;;;4401278;32;20499;-62
2021/04/20 02:10:48;;;;;;;0.62;0.60;;;8.10;99.90;;;;;;4400830;32;20123;-61
2021/04/20 02:13:15;;;;;;;2.53;0.90;;;8.10;99.90;;;;;;4400403;32;20066;-61
2021/04/20 02:15:41;;;;;;;0.22;0.22;;;8.10;99.90;;;;;;4401715;32;20464;-60
2021/04/20 02:18:08;;;;;;;0.43;0.43;;;7.80;99.90;;;;;;4400177;32;20065;-60
2021/04/20 02:20:37;;;;;;;0.45;0.45;;;7.90;99.90;;;;;;4413948;32;20132;-60
2021/04/20 02:23:03;;;;;;;0.40;0.40;;;7.90;99.90;;;;;;4399350;32;20069;-61
2021/04/20 02:25:29;;;;;;;0.40;0.40;;;7.90;99.90;;;;;;4400160;32;20117;-61
2021/04/20 02:27:54;;;;;;;3.47;1.37;;;8.00;99.90;;;;;;4400789;32;20062;-61
2021/04/20 02:30:20;;;;;;;3.03;1.10;;;8.00;99.90;;;;;;4414006;32;20432;-61
2021/04/20 02:32:46;;;;;;;0.60;0.60;;;7.80;99.90;;;;;;4399430;32;20069;-61
2021/04/20 02:35:14;;;;;;;0.43;0.43;;;7.70;99.90;;;;;;4394482;32;20078;-62
2021/04/20 02:37:41;;;;;;;1.17;1.08;;;7.70;99.90;;;;;;4413588;32;20117;-61
2021/04/20 02:40:11;;;;;;;0.40;0.40;;;7.50;99.90;;;;;;4415212;32;20069;-61
2021/04/20 02:42:38;;;;;;;0.32;0.32;;;7.40;99.90;;;;;;4401095;32;20117;-61
2021/04/20 02:45:06;;;;;;;0.65;0.65;;;7.40;99.90;;;;;;4399489;32;20089;-61
2021/04/20 02:47:34;;;;;;;2.92;0.55;;;7.50;99.90;;;;;;4387482;32;20079;-61
2021/04/20 02:50:02;;;;;;;0.62;0.60;;;7.60;99.90;;;;;;4401585;32;20062;-61
2021/04/20 02:52:27;;;;;;;0.62;0.62;;;7.50;99.90;;;;;;4399110;32;20140;-61
2021/04/20 02:54:53;;;;;;;5.32;0.85;;;7.40;99.90;;;;;;4414322;32;20061;-60
2021/04/20 02:57:19;;;;;;;0.40;0.40;;;7.50;99.90;;;;;;4415132;32;20065;-61
2021/04/20 02:59:45;;;;;;;1.30;1.12;;;7.50;99.90;;;;;;4414336;32;20061;-60
2021/04/20 03:02:12;;;;;;;4.32;1.77;;;7.40;99.90;;;;;;4413474;32;20078;-62
2021/04/20 03:04:39;;;;;;;0.30;0.30;;;7.40;99.90;;;;;;4401132;32;20061;-61
2021/04/20 03:07:05;;;;;;;0.82;0.82;;;7.50;99.90;;;;;;4413173;32;20086;-61
2021/04/20 03:09:31;;;;;;;0.40;0.40;;;7.60;99.90;;;;;;4400500;32;20074;-61
2021/04/20 03:11:59;;;;;;;7.28;2.45;;;7.50;99.90;;;;;;4427686;32;20061;-61
2021/04/20 03:14:27;;;;;;;0.55;0.55;;;7.60;99.90;;;;;;4402019;32;20080;-61
2021/04/20 03:16:53;;;;;;;0.45;0.45;;;7.60;99.90;;;;;;4415557;32;20070;-61
2021/04/20 03:19:18;;;;;;;2.70;0.60;;;7.50;99.90;;;;;;4416138;32;20065;-61
2021/04/20 03:21:46;;;;;;;0.60;0.60;;;7.40;99.90;;;;;;4428055;32;20078;-61
2021/04/20 03:24:31;;;;;;;3.70;0.98;;;7.30;99.90;;;;;;4412065;32;20088;-61
2021/04/20 03:26:57;;;;;;;2.37;1.58;;;7.40;99.90;;;;;;4431041;32;20073;-61
2021/04/20 03:29:23;;;;;;;0.75;0.75;;;7.40;99.90;;;;;;4417549;32;20074;-61
2021/04/20 03:31:49;;;;;;;0.75;0.75;;;7.40;99.90;;;;;;4431020;32;20073;-60
2021/04/20 03:34:25;;;;;;;0.40;0.40;;;7.20;99.90;;;;;;4416947;32;20420;-60
2021/04/20 03:36:58;;;;;;;0.52;0.52;;;7.00;99.90;;;;;;4431408;32;20073;-61
2021/04/20 03:39:26;;;;;;;2.22;0.80;;;7.00;99.90;;;;;;4405439;32;20138;-61
2021/04/20 03:42:02;;;;;;;0.52;0.52;;;7.00;99.90;;;;;;4416766;32;20089;-60
2021/04/20 03:44:40;;;;;;;0.60;0.60;;;7.10;99.90;;;;;;4417466;32;20066;-61
2021/04/20 03:47:11;;;;;;;1.55;1.17;;;7.30;99.90;;;;;;4401852;32;20070;-58
2021/04/20 03:49:38;;;;;;;0.30;0.30;;;7.30;99.90;;;;;;4415311;32;20082;-60
2021/04/20 03:52:11;;;;;;;0.65;0.65;;;7.20;99.90;;;;;;4417101;32;20459;-61
2021/04/20 03:54:41;;;;;;;2.62;1.25;;;7.20;99.90;;;;;;4402639;32;20069;-61
2021/04/20 03:57:08;;;;;;;1.65;0.75;;;7.40;99.90;;;;;;4404282;32;20065;-61
2021/04/20 03:59:34;;;;;;;3.75;1.15;;;7.20;99.90;;;;;;4416541;32;20535;-61
2021/04/20 04:02:02;;;;;;;0.55;0.47;;;7.00;99.90;;;;;;4416446;32;20078;-61
2021/04/20 04:04:29;;;;;;;0.60;0.60;;;6.90;99.90;;;;;;4402901;32;20069;-61
2021/04/20 04:06:55;;;;;;;0.80;0.80;;;6.80;99.90;;;;;;4402357;32;20078;-61
2021/04/20 04:09:20;;;;;;;0.40;0.40;;;6.70;99.90;;;;;;4416085;32;20137;-61
2021/04/20 04:11:54;;;;;;;0.65;0.65;;;6.80;99.90;;;;;;4427823;32;20065;-61
2021/04/20 04:14:22;;;;;;;0.57;0.57;;;6.90;99.90;;;;;;4413223;32;20124;-61
2021/04/20 04:16:49;;;;;;;0.50;0.50;;;7.00;99.90;;;;;;4431768;32;20065;-61
2021/04/20 04:19:17;;;;;;;1.90;1.48;;;7.10;99.90;;;;;;4404824;32;20065;-61
2021/04/20 04:21:47;;;;;;;2.35;1.10;;;6.90;99.90;;;;;;4396660;32;20089;-60
2021/04/20 04:24:16;;;;;;;0.73;0.55;;;6.70;99.90;;;;;;4411830;32;20078;-62
2021/04/20 04:26:46;;;;;;;3.72;1.23;;;6.50;99.90;;;;;;4427439;32;20119;-61
2021/04/20 04:29:13;;;;;;;0.73;0.52;;;6.50;99.90;;;;;;4404984;32;20077;-61
2021/04/20 04:31:42;;;;;;;0.50;0.50;;;6.50;99.90;;;;;;4415626;32;20058;-61
2021/04/20 04:34:10;;;;;;;0.70;0.45;;;6.50;99.90;;;;;;4415722;32;20085;-60
2021/04/20 04:36:36;;;;;;;0.68;0.68;;;6.50;99.90;;;;;;4414710;32;20069;-61
2021/04/20 04:39:02;;;;;;;3.28;1.77;;;6.50;99.90;;;;;;4415049;32;20496;-61
2021/04/20 04:41:28;;;;;;;3.60;0.60;;;6.60;99.90;;;;;;4416698;32;20117;-61
2021/04/20 04:43:54;;;;;;;1.30;1.20;;;6.80;99.90;;;;;;4414859;32;20078;-61
2021/04/20 04:46:21;;;;;;;0.70;0.70;;;6.80;99.90;;;;;;4414939;32;20082;-61
2021/04/20 04:48:47;;;;;;;1.05;0.90;;;6.70;99.90;;;;;;4414485;32;20066;-62
2021/04/20 04:51:15;;;;;;;2.67;1.40;;;6.70;99.90;;;;;;4400417;32;20132;-60
2021/04/20 04:53:41;;;;;;;0.68;0.68;;;6.80;99.90;;;;;;4401949;32;20078;-61
2021/04/20 04:56:08;;;;;;;1.40;1.25;;;6.80;99.90;;;;;;4414225;32;20077;-62
2021/04/20 04:58:36;;;;;;;0.40;0.40;;;6.90;99.90;;;;;;4414511;32;20072;-61
2021/04/20 05:01:03;;;;;;;3.33;0.93;;;6.90;99.90;;;;;;4411925;32;20077;-60
2021/04/20 05:03:29;;;;;;;3.70;0.95;;;6.90;99.90;;;;;;4410956;32;20074;-60
2021/04/20 05:05:56;;;;;;;0.85;0.82;;;7.10;99.90;;;;;;4425918;32;20112;-60
2021/04/20 05:08:22;;;;;;;0.40;0.40;;;7.20;99.90;;;;;;4409459;32;20494;-60
2021/04/20 05:10:49;;;;;;;0.45;0.45;;;7.20;99.90;;;;;;4420812;32;20120;-61
2021/04/20 05:13:16;;;;;;;0.50;0.50;;;7.30;99.90;;;;;;4405753;32;20522;-60
2021/04/20 05:15:41;;;;;;;2.17;1.23;;;7.30;99.90;;;;;;4402443;32;20077;-61
2021/04/20 05:18:09;;;;;;;0.52;0.52;;;7.40;99.90;;;;;;4405350;32;20085;-61
2021/04/20 05:20:42;;;;;;;1.45;1.20;;;7.50;99.90;;;;;;4402970;32;20113;-61
2021/04/20 05:23:08;;;;;;;0.50;0.50;;;7.60;99.90;;;;;;4404384;32;20069;-60
2021/04/20 05:25:35;;;;;;;1.10;0.93;;;7.70;99.90;;;;;;4414453;32;20950;-61
2021/04/20 05:28:00;;;;;;;0.47;0.47;;;7.80;99.90;;;;;;4381622;32;20101;-61
2021/04/20 05:30:26;;;;;;;44.72;3.30;;;7.80;99.90;;;;;;4408196;32;20893;-61
2021/04/20 05:32:52;;;;;;;0.70;0.70;;;7.80;99.90;;;;;;4396375;32;20320;-61
2021/04/20 05:35:20;;;;;;;0.57;0.57;;;7.90;99.90;;;;;;4411758;32;20077;-62
2021/04/20 05:37:47;;;;;;;1.52;1.10;;;8.00;99.90;;;;;;4421173;32;20184;-61
2021/04/20 05:40:16;;;;;;;11.45;1.52;;;8.10;99.90;;;;;;4422933;32;20120;-62
2021/04/20 05:42:42;;;;;;;1.10;0.77;;;8.20;99.90;;;;;;4427461;32;20542;-61
2021/04/20 05:45:10;;;;;;;0.45;0.45;;;8.30;99.90;;;;;;4415262;32;20077;-62
2021/04/20 05:47:40;;;;;;;3.35;1.77;;;8.40;99.90;;;;;;4419076;32;20090;-63
2021/04/20 05:50:07;;;;;;;6.50;1.83;;;8.30;99.90;;;;;;4402683;32;20503;-62
2021/04/20 05:52:34;;;;;;;7.43;2.15;;;8.40;99.90;;;;;;4400337;32;20102;-62
2021/04/20 05:55:00;;;;;;;2.42;1.12;;;8.50;99.90;;;;;;4389805;32;20475;-62
2021/04/20 05:57:26;;;;;;;0.68;0.68;;;8.50;99.90;;;;;;4402681;32;20064;-61
2021/04/20 05:59:55;;;;;;;3.20;1.50;;;8.60;99.90;;;;;;4400093;32;20527;-61
2021/04/20 06:02:22;;;;;;;0.80;0.80;;;8.60;99.90;;;;;;4401563;32;20405;-60
2021/04/20 06:04:52;;;;;;;3.83;1.25;;;8.60;99.90;;;;;;4416367;32;20428;-62
2021/04/20 06:07:18;;;;;;;0.62;0.62;;;8.70;99.90;;;;;;4404244;32;20058;-61
2021/04/20 06:09:44;;;;;;;6.72;1.23;;;8.80;99.90;;;;;;4417830;32;20057;-62
2021/04/20 06:12:11;;;;;;;1.25;0.62;;;8.90;99.90;;;;;;4415639;32;20082;-61
2021/04/20 06:14:38;;;;;;;1.73;1.00;;;9.10;99.90;;;;;;4402428;32;20065;-62
2021/04/20 06:17:06;;;;;;;6.37;1.40;;;9.10;99.90;;;;;;4402305;32;20091;-62
2021/04/20 06:19:33;;;;;;;0.80;0.80;;;9.20;99.90;;;;;;4414913;32;20120;-61
2021/04/20 06:21:59;;;;;;;5.60;1.12;;;9.20;99.90;;;;;;4402393;32;20194;-62
2021/04/20 06:24:25;;;;;;;1.30;1.15;;;9.40;99.90;;;;;;4418629;32;20073;-62
2021/04/20 06:26:51;;;;;;;0.80;0.80;;;9.40;99.90;;;;;;4390097;32;20078;-61
2021/04/20 06:29:17;;;;;;;3.53;1.20;;;9.50;99.90;;;;;;4415158;32;20409;-62
2021/04/20 06:31:42;;;;;;;3.62;1.02;;;9.50;99.90;;;;;;4414441;32;20162;-62
2021/04/20 06:34:08;;;;;;;20.58;1.20;;;9.60;99.90;;;;;;4415767;32;20157;-62
2021/04/20 06:36:37;;;;;;;0.93;0.93;;;9.60;99.90;;;;;;4413200;32;20105;-62
2021/04/20 06:39:03;;;;;;;6.32;1.48;;;9.70;99.90;;;;;;4407035;32;20113;-60
2021/04/20 06:41:31;;;;;;;0.50;0.50;;;9.80;99.90;;;;;;4421379;32;20159;-62
2021/04/20 06:44:07;;;;;;;0.47;0.47;;;9.90;99.90;;;;;;4421998;32;20061;-62
2021/04/20 06:46:39;;;;;;;0.73;0.68;;;10.00;99.90;;;;;;4418357;32;20559;-63
2021/04/20 06:49:15;;;;;;;1.75;1.20;;;10.10;99.90;;;;;;4416203;32;20054;-60
2021/04/20 06:51:48;;;;;;;0.70;0.70;;;10.20;99.90;;;;;;4412402;32;20069;-61
2021/04/20 06:54:21;;;;;;;1.02;0.88;;;10.20;99.90;;;;;;4401678;32;20088;-62
2021/04/20 06:56:59;;;;;;;2.42;1.60;;;10.30;99.90;;;;;;4401680;32;20488;-62
2021/04/20 06:59:51;;;;;;;4.45;2.37;;;10.30;99.90;;;;;;4423501;32;20116;-61
2021/04/20 07:02:56;;;;;;;1.45;1.27;;;10.40;99.90;;;;;;4410026;32;20423;-62
2021/04/20 07:05:29;;;;;;;2.28;1.45;;;10.50;99.90;;;;;;4404807;32;20065;-61
2021/04/20 07:08:14;;;;;;;0.52;0.52;;;10.50;99.90;;;;;;4396727;32;20086;-61
2021/04/20 07:10:42;;;;;;;2.40;1.40;;;10.50;99.90;;;;;;4416313;32;20081;-62
2021/04/20 07:13:12;;;;;;;0.88;0.85;;;10.60;99.90;;;;;;4419837;32;20093;-62
2021/04/20 07:15:41;;;;;;;1.80;1.23;;;10.60;99.90;;;;;;4414757;32;20077;-62
2021/04/20 07:18:22;;;;;;;1.75;1.17;;;10.60;99.90;;;;;;4401139;32;20090;-63
2021/04/20 07:21:18;;;;;;;1.05;0.93;;;10.60;99.90;;;;;;4406579;32;20467;-61
2021/04/20 07:24:20;;;;;;;0.68;0.68;;;10.90;99.90;;;;;;4409446;32;20106;-62
2021/04/20 07:27:11;;;;;;;1.17;0.60;;;11.00;99.90;;;;;;4398149;32;20498;-62
2021/04/20 07:30:01;;;;;;;0.77;0.68;;;11.00;99.90;;;;;;4398762;32;20129;-62
2021/04/20 07:32:32;;;;;;;0.70;0.68;;;11.10;99.90;;;;;;4404521;32;20109;-61
2021/04/20 07:35:21;;;;;;;0.85;0.80;;;11.20;99.90;;;;;;4412727;32;20076;-62
2021/04/20 07:37:50;;;;;;;0.45;0.35;;;11.20;99.90;;;;;;4416508;32;20086;-61
2021/04/20 07:40:21;;;;;;;0.75;0.70;;;11.30;99.90;;;;;;4417382;32;20066;-64
2021/04/20 07:42:58;;;;;;;3.92;1.52;;;11.40;99.90;;;;;;4417425;32;20146;-60
2021/04/20 07:45:39;;;;;;;0.75;0.70;;;11.50;99.90;;;;;;4414050;32;20429;-61
2021/04/20 07:48:14;;;;;;;1.15;1.00;;;11.50;99.90;;;;;;4418110;32;20073;-60
2021/04/20 07:50:45;;;;;;;1.17;0.77;;;11.50;99.90;;;;;;4415554;32;20093;-61
2021/04/20 07:53:38;;;;;;;2.50;0.90;;;11.50;99.90;;;;;;4408197;32;20112;-60
2021/04/20 07:56:13;;;;;;;0.40;0.40;;;11.70;99.90;;;;;;4401070;32;20538;-61
2021/04/20 07:58:44;;;;;;;0.50;0.50;;;11.90;99.90;;;;;;4397452;32;20415;-61
2021/04/20 08:01:20;;;;;;;1.10;1.00;;;12.00;99.90;;;;;;4420629;32;20074;-61
2021/04/20 08:03:51;;;;;;;0.40;0.40;;;12.20;99.90;;;;;;4419964;32;20081;-60
2021/04/20 08:06:23;;;;;;;4.35;0.85;;;12.30;99.90;;;;;;4403490;32;20077;-61
2021/04/20 08:08:53;;;;;;;0.65;0.65;;;12.40;99.90;;;;;;4416865;32;20128;-61
2021/04/20 08:11:24;;;;;;;5.53;1.15;;;12.60;99.90;;;;;;4417813;32;20081;-61
2021/04/20 08:14:01;;;;;;;1.77;1.00;;;12.70;99.90;;;;;;4417360;32;20077;-61
2021/04/20 08:16:36;;;;;;;0.57;0.57;;;12.80;99.90;;;;;;4421058;32;20089;-62
2021/04/20 08:19:23;;;;;;;0.70;0.70;;;12.80;99.90;;;;;;4421816;32;20082;-62
2021/04/20 08:21:50;;;;;;;3.03;0.88;;;12.90;99.90;;;;;;4407468;32;20081;-61
2021/04/20 08:24:22;;;;;;;6.80;2.65;;;12.90;99.90;;;;;;4402074;32;20081;-61
2021/04/20 08:26:55;;;;;;;9.63;1.10;;;12.90;99.90;;;;;;4418470;32;20076;-61
2021/04/20 08:29:25;;;;;;;0.80;0.80;;;13.00;99.90;;;;;;4414434;32;20069;-61
2021/04/20 08:31:56;;;;;;;3.75;1.48;;;13.00;99.90;;;;;;4388456;32;20633;-61
2021/04/20 08:34:43;;;;;;;3.00;0.75;;;13.10;99.90;;;;;;4417270;32;20413;-61
2021/04/20 08:37:30;;;;;;;1.35;0.82;;;13.40;99.90;;;;;;4408980;32;20097;-61
2021/04/20 08:40:25;;;;;;;0.50;0.50;;;13.60;99.90;;;;;;4405805;32;20098;-60
2021/04/20 08:43:16;;;;;;;1.77;0.70;;;13.50;99.90;;;;;;4408455;32;20066;-61
2021/04/20 08:45:49;;;;;;;0.62;0.52;;;13.60;99.90;;;;;;4397319;32;20078;-61
2021/04/20 08:48:50;;;;;;;0.65;0.55;;;13.80;99.90;;;;;;4405409;32;20521;-62
2021/04/20 08:51:28;;;;;;;3.92;0.60;;;13.80;99.90;;;;;;4422039;32;20199;-62
2021/04/20 08:54:29;;;;;;;1.62;1.05;;;13.90;99.90;;;;;;4403050;32;20531;-62
2021/04/20 08:57:07;;;;;;;2.22;0.70;;;13.90;99.90;;;;;;4410272;32;20140;-62
2021/04/20 09:00:01;;;;;;;1.12;0.60;;;13.90;99.90;;;;;;4402121;32;20132;-62
2021/04/20 09:02:53;;;;;;;0.73;0.70;;;14.00;99.90;;;;;;4411721;32;20068;-60
2021/04/20 09:05:26;;;;;;;1.20;1.05;;;14.10;99.90;;;;;;4409019;32;20074;-61
2021/04/20 09:07:59;;;;;;;0.60;0.60;;;14.40;99.90;;;;;;4419252;32;20070;-61
2021/04/20 09:10:31;;;;;;;0.75;0.75;;;14.70;99.90;;;;;;4405346;32;20072;-61
2021/04/20 09:13:06;;;;;;;2.37;1.58;;;14.80;99.90;;;;;;4404539;32;20124;-62
2021/04/20 09:15:36;;;;;;;0.43;0.37;;;14.90;99.90;;;;;;4419168;32;20085;-62
2021/04/20 09:18:07;;;;;;;0.40;0.40;;;14.90;99.90;;;;;;4412008;32;20069;-63
2021/04/20 09:20:42;;;;;;;0.55;0.55;;;15.00;99.90;;;;;;4403121;32;20129;-62
2021/04/20 09:23:33;;;;;;;0.75;0.75;;;14.90;99.90;;;;;;4397885;32;20069;-62
2021/04/20 09:26:20;;;;;;;0.68;0.68;;;14.90;99.90;;;;;;4413823;32;20155;-63
2021/04/20 09:28:58;;;;;;;0.70;0.70;;;15.00;99.90;;;;;;4398633;32;20299;-63
2021/04/20 09:31:27;;;;;;;0.90;0.82;;;15.00;99.90;;;;;;4401009;32;20156;-63
2021/04/20 09:33:54;;;;;;;0.85;0.70;;;15.00;99.90;;;;;;4409720;32;20545;-64
2021/04/20 09:36:21;;;;;;;0.82;0.82;;;15.30;99.90;;;;;;4392879;32;21267;-62
2021/04/20 09:40:26;;;;;;;1.75;0.80;;;15.50;99.90;;;;;;4458965;32;94110;-63
2021/04/20 09:42:58;;;;;;;0.60;0.60;;;15.60;99.90;;;;;;4443675;32;20237;-63
2021/04/20 09:45:46;;;;;;;1.95;0.98;;;15.70;99.90;;;;;;4448110;32;20530;-63
2021/04/20 09:48:26;;;;;;;10.55;2.05;;;16.00;99.90;;;;;;4445735;32;20088;-63
2021/04/20 09:51:11;;;;;;;1.42;1.00;;;16.30;99.90;;;;;;4447290;32;20127;-63
2021/04/20 09:54:04;;;;;;;2.28;1.92;;;16.50;99.90;;;;;;4450030;32;20076;-63
2021/04/20 09:56:39;;;;;;;2.35;1.55;;;16.60;99.90;;;;;;4448945;32;20706;-63
2021/04/20 09:59:12;;;;;;;0.50;0.50;;;16.90;99.90;;;;;;4459779;32;20423;-63
2021/04/20 10:01:47;;;;;;;1.37;1.08;;;16.90;99.90;;;;;;4449383;32;20189;-62
2021/04/20 10:04:41;;;;;;;0.65;0.65;;;17.00;99.90;;;;;;4448598;32;20558;-64
2021/04/20 10:07:22;;;;;;;1.62;0.80;;;17.10;99.90;;;;;;4448609;32;20077;-63
2021/04/20 10:10:28;;;;;;;0.68;0.68;;;17.40;99.90;;;;;;4448122;32;20084;-63
2021/04/20 10:13:19;;;;;;;0.88;0.88;;;17.50;99.50;;;;;;4440003;32;20493;-62
2021/04/20 10:16:15;;;;;;;1.30;0.90;;;17.30;99.90;;;;;;4441061;32;20439;-63
2021/04/20 10:18:44;;;;;;;6.97;2.05;;;17.60;99.90;;;;;;4453388;32;20072;-62
2021/04/20 10:21:32;;;;;;;2.60;1.00;;;17.80;99.90;;;;;;4440748;32;20093;-63
2021/04/20 10:24:07;;;;;;;2.92;1.60;;;17.60;99.90;;;;;;4429092;32;20081;-61
2021/04/20 10:27:02;;;;;;;1.25;0.60;;;18.00;99.10;;;;;;4433988;32;20116;-62
2021/04/20 10:29:40;;;;;;;0.47;0.47;;;17.80;98.50;;;;;;4421882;32;20077;-64
2021/04/20 10:32:28;;;;;;;1.85;0.73;;;17.90;98.60;;;;;;4452789;32;20533;-64
2021/04/20 10:34:55;;;;;;;4.82;1.45;;;18.10;98.70;;;;;;4421492;32;20120;-62
2021/04/20 10:37:30;;;;;;;3.72;1.23;;;18.40;97.70;;;;;;4430659;32;20472;-62
2021/04/20 10:39:57;;;;;;;3.78;0.52;;;18.40;97.20;;;;;;4447033;32;20065;-63
2021/04/20 10:42:28;;;;;;;0.40;0.40;;;18.50;96.40;;;;;;4446313;32;20085;-63
2021/04/20 10:44:55;;;;;;;2.37;0.90;;;18.70;96.70;;;;;;4423855;32;20069;-63
2021/04/20 10:47:22;;;;;;;0.90;0.90;;;18.90;96.30;;;;;;4443938;32;20131;-63
2021/04/20 10:49:53;;;;;;;4.00;1.27;;;18.90;96.30;;;;;;4435469;32;20149;-64
2021/04/20 10:52:22;;;;;;;0.47;0.47;;;19.30;95.70;;;;;;4419729;32;20401;-61
2021/04/20 10:54:49;;;;;;;1.80;1.12;;;19.40;94.90;;;;;;4422303;32;20061;-64
2021/04/20 10:57:15;;;;;;;0.55;0.55;;;19.20;93.90;;;;;;4438993;32;20073;-63
2021/04/20 10:59:42;;;;;;;7.43;0.80;;;19.10;94.90;;;;;;4438380;32;20076;-62
2021/04/20 11:02:28;;;;;;;0.50;0.50;;;19.20;93.60;;;;;;4418127;32;20153;-63
2021/04/20 11:04:55;;;;;;;6.93;1.52;;;19.50;93.60;;;;;;4434993;32;20073;-63
2021/04/20 11:07:27;;;;;;;0.40;0.40;;;19.80;92.70;;;;;;4419301;32;20069;-62
2021/04/20 11:09:59;;;;;;;0.95;0.95;;;20.00;90.70;;;;;;4426831;32;20060;-63
2021/04/20 11:12:26;;;;;;;0.75;0.75;;;20.00;90.80;;;;;;4414930;32;20065;-63
2021/04/20 11:14:53;;;;;;;0.77;0.77;;;19.90;90.40;;;;;;4439701;32;20073;-64
2021/04/20 11:17:23;;;;;;;1.70;1.20;;;20.10;90.40;;;;;;4432883;32;20526;-63
2021/04/20 11:20:09;;;;;;;;;;;20.10;90.30;;;;;;4421990;32;20078;-63
2021/04/20 11:22:41;;;;;;;2.55;1.55;;;20.20;90.50;;;;;;4421179;32;20048;-65
2021/04/20 11:25:20;;;;;;;0.80;0.62;;;20.50;87.90;;;;;;4422681;32;20127;-63
2021/04/20 11:27:52;;;;;;;22.10;1.55;;;20.50;88.30;;;;;;4434583;32;20090;-63
2021/04/20 11:30:18;;;;;;;0.60;0.60;;;21.00;87.60;;;;;;4414887;32;20474;-63
2021/04/20 11:32:48;;;;;;;2.15;1.10;;;21.00;84.70;;;;;;4428744;32;20673;-63
2021/04/20 11:35:18;;;;;;;0.70;0.70;;;21.10;83.90;;;;;;4425013;32;20538;-64
2021/04/20 11:37:45;;;;;;;2.03;0.75;;;21.30;82.30;;;;;;4433215;32;20089;-63
2021/04/20 11:40:26;;;;;;;0.30;0.30;;;21.60;83.90;;;;;;4420837;32;20081;-63
2021/04/20 11:42:54;;;;;;;0.68;0.68;;;21.70;82.10;;;;;;4420530;32;20069;-63
2021/04/20 11:45:23;;;;;;;2.05;0.77;;;21.60;80.60;;;;;;4432387;32;20093;-63
2021/04/20 11:47:54;;;;;;;2.17;1.37;;;21.50;81.50;;;;;;4427193;32;20077;-64
2021/04/20 11:50:21;;;;;;;1.15;0.75;;;21.80;78.80;;;;;;4423327;32;20061;-62
2021/04/20 11:52:54;;;;;;;5.05;0.70;;;22.00;78.30;;;;;;4438507;32;20076;-63
2021/04/20 11:55:19;;;;;;;1.37;0.68;;;22.30;76.60;;;;;;4425749;32;20525;-64
2021/04/20 11:57:46;;;;;;;0.75;0.70;;;22.10;75.80;;;;;;4436634;32;20082;-63
2021/04/20 12:00:13;;;;;;;0.65;0.65;;;21.80;74.90;;;;;;4437925;32;20057;-61
2021/04/20 12:02:40;;;;;;;0.32;0.32;;;21.50;76.60;;;;;;4433663;32;20494;-64
2021/04/20 12:05:10;;;;;;;14.13;1.85;;;21.50;77.00;;;;;;4432768;32;20498;-63
2021/04/20 12:07:36;;;;;;;0.30;0.30;;;21.60;76.20;;;;;;4420078;32;20077;-62
2021/04/20 12:10:04;;;;;;;0.70;0.62;;;22.20;74.50;;;;;;4433026;32;20065;-62
2021/04/20 12:12:33;;;;;;;1.95;0.75;;;22.20;72.40;;;;;;4414293;32;20096;-61
2021/04/20 12:15:00;;;;;;;0.73;0.60;;;22.50;73.90;;;;;;4436606;32;20056;-62
2021/04/20 12:17:30;;;;;;;2.53;1.30;;;23.20;72.00;;;;;;4424486;32;20093;-61
2021/04/20 12:19:59;;;;;;;0.62;0.50;;;23.00;69.70;;;;;;4421329;32;20526;-62
2021/04/20 12:22:25;;;;;;;0.68;0.65;;;23.10;68.50;;;;;;4438366;32;20092;-62
2021/04/20 12:24:52;;;;;;;0.55;0.55;;;23.40;68.30;;;;;;4422784;32;20514;-62
2021/04/20 12:27:23;;;;;;;0.32;0.32;;;23.70;65.20;;;;;;4435088;32;20066;-63
2021/04/20 12:29:50;;;;;;;1.02;0.75;;;24.10;65.50;;;;;;4411656;32;20072;-61
2021/04/20 12:32:17;;;;;;;2.55;1.12;;;24.50;62.60;;;;;;4424401;32;20521;-63
2021/04/20 12:34:44;;;;;;;0.88;0.60;;;24.00;62.30;;;;;;4405294;32;20177;-64
2021/04/20 12:37:10;;;;;;;0.55;0.50;;;23.60;63.80;;;;;;4433961;32;20143;-61
2021/04/20 12:39:39;;;;;;;0.40;0.35;;;23.80;64.20;;;;;;4433699;32;20136;-63
2021/04/20 12:42:10;;;;;;;0.32;0.32;;;24.10;62.60;;;;;;4431753;32;20342;-64
2021/04/20 12:44:39;;;;;;;0.90;0.70;;;24.30;61.30;;;;;;4424412;32;20077;-63
2021/04/20 12:47:08;;;;;;;1.83;0.52;;;24.40;62.00;;;;;;4430026;32;20069;-63
2021/04/20 12:49:36;;;;;;;1.75;0.60;;;24.60;59.70;;;;;;4414410;32;20123;-63
2021/04/20 12:52:07;;;;;;;0.30;0.30;;;24.50;58.50;;;;;;4425001;32;20134;-63
2021/04/20 12:54:37;;;;;;;0.47;0.47;;;24.70;59.40;;;;;;4427016;32;20073;-64
2021/04/20 12:57:06;;;;;;;0.20;0.20;;;24.90;59.70;;;;;;4422925;32;20870;-63
2021/04/20 12:59:35;;;;;;;1.50;0.85;;;25.10;59.30;;;;;;4424948;32;20132;-62
2021/04/20 13:02:01;;;;;;;0.95;0.55;;;25.20;58.70;;;;;;4403137;32;20073;-62
2021/04/20 13:04:33;;;;;;;0.70;0.70;;;24.50;59.60;;;;;;4420785;32;20120;-64
2021/04/20 13:07:00;;;;;;;0.90;0.40;;;24.70;59.10;;;;;;4441249;32;20096;-62
2021/04/20 13:09:31;;;;;;;0.73;0.73;;;24.90;59.80;;;;;;4410018;32;20136;-63
2021/04/20 13:11:58;;;;;;;3.47;1.60;;;25.10;57.10;;;;;;4438310;32;20084;-63
2021/04/20 13:14:25;;;;;;;0.30;0.30;;;24.80;57.40;;;;;;4434245;32;20061;-63